Terminal Aerodrome Forecast
Issued by NWS

Home | Current Version | Previous Version | Text Only | Print | Product List | Glossary On
Versions: 1 2 3 4 5 6 7 8 9 10 11 12 13 14 15
000
FTUS45 KPSR 182000 AAA
TAFBLH
TAF AMD
KBLH 182005Z 1820/1918 18010KT P6SM VCSH FEW090 SCT120 BKN200
      TEMPO 1820/1823 18012G20KT SCT090 BKN120
     FM190500 VRB05KT P6SM FEW080 SCT120 BKN200=

USA.gov is the U.S. government's official web portal to all federal, state and local government web resources and services.